createdAt,value
2018-08-17T00:00:07.963Z,1.80
2018-08-17T00:02:12.229Z,1.73
2018-08-17T00:04:16.435Z,1.90
2018-08-17T00:06:20.630Z,2.10
2018-08-17T00:08:24.828Z,2.47
2018-08-17T00:10:29.066Z,2.57
2018-08-17T00:12:33.231Z,2.20
2018-08-17T00:14:37.476Z,2.17
2018-08-17T00:16:42.111Z,2.57
2018-08-17T00:18:46.311Z,1.87
2018-08-17T00:20:50.485Z,2.27
2018-08-17T00:22:54.719Z,2.43
2018-08-17T00:24:58.950Z,2.23
2018-08-17T00:27:03.150Z,2.03
2018-08-17T00:29:07.378Z,1.90
2018-08-17T00:31:11.550Z,1.90
2018-08-17T00:33:16.305Z,1.90
2018-08-17T00:35:20.538Z,2.03
2018-08-17T00:37:24.740Z,2.07
2018-08-17T00:39:28.951Z,2.27
2018-08-17T00:41:33.150Z,2.10
2018-08-17T00:43:37.342Z,2.20
2018-08-17T00:45:41.570Z,2.00
2018-08-17T00:47:45.796Z,2.30
2018-08-17T00:49:49.990Z,1.83
2018-08-17T00:51:54.251Z,1.70
2018-08-17T00:53:58.480Z,2.10
2018-08-17T00:56:02.696Z,2.13
2018-08-17T00:58:06.994Z,2.30
2018-08-17T01:00:11.290Z,2.27
2018-08-17T01:02:15.554Z,1.90
2018-08-17T01:04:19.851Z,2.30
2018-08-17T01:06:24.074Z,2.10
2018-08-17T01:08:28.302Z,2.37
2018-08-17T01:10:32.636Z,2.10
2018-08-17T01:12:36.909Z,1.90
2018-08-17T01:14:41.101Z,2.37
2018-08-17T01:16:46.274Z,2.40
2018-08-17T01:18:50.459Z,2.10
2018-08-17T01:20:54.682Z,2.20
2018-08-17T01:22:59.004Z,2.13
2018-08-17T01:25:03.475Z,2.47
2018-08-17T01:27:07.700Z,2.20
2018-08-17T01:29:11.980Z,2.30
2018-08-17T01:31:16.192Z,2.13
2018-08-17T01:33:20.469Z,2.70
2018-08-17T01:35:24.648Z,2.73
2018-08-17T01:37:28.898Z,2.33
2018-08-17T01:39:33.138Z,1.90
2018-08-17T01:41:37.382Z,2.67
2018-08-17T01:43:41.644Z,2.63
2018-08-17T01:45:51.996Z,2.57
2018-08-17T01:47:56.344Z,2.50
2018-08-17T01:50:00.508Z,2.57
2018-08-17T01:52:04.715Z,2.70
2018-08-17T01:54:08.910Z,2.40
2018-08-17T01:56:13.081Z,2.70
2018-08-17T01:58:17.257Z,2.30
2018-08-17T02:00:21.453Z,2.20
2018-08-17T02:02:25.665Z,2.87
2018-08-17T02:04:29.874Z,2.70
2018-08-17T02:06:34.053Z,2.60
2018-08-17T02:08:38.326Z,2.43
2018-08-17T02:10:42.540Z,2.83
2018-08-17T02:12:46.799Z,3.07
2018-08-17T02:14:51.077Z,3.23
2018-08-17T02:16:55.235Z,3.27
2018-08-17T02:18:59.411Z,3.30
2018-08-17T02:21:03.597Z,3.13
2018-08-17T02:23:08.166Z,3.57
2018-08-17T02:25:12.372Z,2.90
2018-08-17T02:27:16.637Z,3.67
2018-08-17T02:29:20.810Z,3.30
2018-08-17T02:31:25.056Z,3.60
2018-08-17T02:33:29.283Z,6.13
2018-08-17T02:35:33.446Z,6.03
2018-08-17T02:37:37.675Z,4.93
2018-08-17T02:39:42.019Z,6.10
2018-08-17T02:41:46.180Z,5.60
2018-08-17T02:43:50.427Z,5.73
2018-08-17T02:45:54.584Z,5.60
2018-08-17T02:47:58.899Z,5.80
2018-08-17T02:50:03.057Z,5.73
2018-08-17T02:52:07.377Z,5.70
2018-08-17T02:54:11.556Z,5.57
2018-08-17T02:56:15.728Z,5.83
2018-08-17T02:58:19.930Z,5.70
2018-08-17T03:00:24.161Z,5.43
2018-08-17T03:02:28.429Z,4.10
2018-08-17T03:04:32.723Z,5.07
2018-08-17T03:06:36.934Z,4.10
2018-08-17T03:08:41.193Z,3.80
2018-08-17T03:10:45.479Z,4.20
2018-08-17T03:12:49.698Z,4.43
2018-08-17T03:14:53.868Z,4.97
2018-08-17T03:16:58.526Z,3.97
2018-08-17T03:19:02.749Z,5.07
2018-08-17T03:21:07.031Z,4.50
2018-08-17T03:23:11.268Z,4.60
2018-08-17T03:25:15.445Z,4.87
2018-08-17T03:27:19.562Z,4.67
2018-08-17T03:29:23.765Z,4.80
2018-08-17T03:31:27.960Z,4.90
2018-08-17T03:33:32.347Z,4.77
2018-08-17T03:35:37.023Z,4.40
2018-08-17T03:37:41.402Z,4.77
2018-08-17T03:39:45.604Z,4.97
2018-08-17T03:41:49.878Z,4.40
2018-08-17T03:43:54.104Z,4.73
2018-08-17T03:45:58.303Z,3.90
2018-08-17T03:48:02.498Z,3.20
2018-08-17T03:50:07.507Z,3.50
2018-08-17T03:52:11.747Z,2.83
2018-08-17T03:54:15.924Z,3.90
2018-08-17T03:56:20.174Z,4.27
2018-08-17T03:58:24.331Z,4.00
2018-08-17T04:00:28.605Z,3.40
2018-08-17T04:02:32.891Z,4.47
2018-08-17T04:04:37.307Z,4.20
2018-08-17T04:06:41.526Z,4.27
2018-08-17T04:08:45.738Z,3.23
2018-08-17T04:10:49.950Z,4.13
2018-08-17T04:12:54.198Z,3.97
2018-08-17T04:14:58.383Z,3.90
2018-08-17T04:17:02.633Z,3.73
2018-08-17T04:19:06.851Z,4.60
2018-08-17T04:21:11.417Z,3.97
2018-08-17T04:23:15.618Z,3.17
2018-08-17T04:25:19.886Z,2.93
2018-08-17T04:27:24.090Z,4.27
2018-08-17T04:29:28.265Z,3.53
2018-08-17T04:31:32.609Z,3.70
2018-08-17T04:33:36.789Z,3.67
2018-08-17T04:35:40.999Z,4.60
2018-08-17T04:37:45.226Z,3.87
2018-08-17T04:39:49.473Z,5.40
2018-08-17T04:41:53.631Z,5.13
2018-08-17T04:43:57.962Z,5.27
2018-08-17T04:46:02.269Z,4.50
2018-08-17T04:48:06.601Z,3.57
2018-08-17T04:50:11.102Z,3.47
2018-08-17T04:52:15.333Z,4.00
2018-08-17T04:54:20.412Z,3.73
2018-08-17T04:56:25.209Z,4.37
2018-08-17T04:58:29.841Z,5.47
2018-08-17T05:00:34.755Z,4.40
2018-08-17T05:02:39.991Z,4.23
2018-08-17T05:04:44.161Z,3.43
2018-08-17T05:06:48.303Z,3.33
2018-08-17T05:08:52.961Z,4.33
2018-08-17T05:10:57.125Z,4.53
2018-08-17T05:13:02.074Z,4.87
2018-08-17T05:15:06.997Z,4.80
2018-08-17T05:17:11.582Z,5.53
2018-08-17T05:19:15.875Z,5.27
2018-08-17T05:21:20.094Z,6.20
2018-08-17T05:23:24.341Z,5.93
2018-08-17T05:25:28.660Z,6.17
2018-08-17T05:27:32.859Z,6.47
2018-08-17T05:29:37.007Z,5.90
2018-08-17T05:31:41.239Z,7.43
2018-08-17T05:33:45.431Z,4.03
2018-08-17T05:35:49.683Z,3.23
2018-08-17T05:37:53.974Z,5.67
2018-08-17T05:39:58.202Z,7.03
2018-08-17T05:42:02.571Z,7.67
2018-08-17T05:44:06.747Z,5.70
2018-08-17T05:46:10.954Z,5.97
2018-08-17T05:48:15.374Z,6.00
2018-08-17T05:50:19.572Z,5.67
2018-08-17T05:52:23.855Z,4.67
2018-08-17T05:54:28.079Z,5.77
2018-08-17T05:56:32.270Z,4.67
2018-08-17T05:58:36.479Z,5.90
2018-08-17T06:00:40.679Z,6.27
2018-08-17T06:02:44.942Z,6.60
2018-08-17T06:04:49.090Z,7.37
2018-08-17T06:06:53.443Z,6.83
2018-08-17T06:08:57.701Z,6.87
2018-08-17T06:11:01.971Z,3.53
2018-08-17T06:13:06.287Z,6.50
2018-08-17T06:15:11.738Z,6.47
2018-08-17T06:17:26.554Z,6.83
2018-08-17T06:19:31.114Z,6.97
2018-08-17T06:21:35.357Z,7.57
2018-08-17T06:23:39.537Z,6.90
2018-08-17T06:25:43.730Z,6.00
2018-08-17T06:27:47.894Z,6.10
2018-08-17T06:29:52.187Z,5.93
2018-08-17T06:31:56.382Z,7.37
2018-08-17T06:34:00.683Z,7.30
2018-08-17T06:36:05.022Z,6.07
2018-08-17T06:38:09.235Z,7.20
2018-08-17T06:40:13.418Z,8.17
2018-08-17T06:42:17.658Z,7.57
2018-08-17T06:44:21.830Z,7.20
2018-08-17T06:46:26.029Z,8.00
2018-08-17T06:48:30.303Z,7.50
2018-08-17T06:50:34.551Z,6.70
2018-08-17T06:52:39.716Z,7.67
2018-08-17T06:54:44.328Z,8.10
2018-08-17T06:56:48.540Z,7.67
2018-08-17T06:58:52.782Z,8.53
2018-08-17T07:00:57.010Z,8.13
2018-08-17T07:03:01.201Z,8.87
2018-08-17T07:05:05.816Z,8.83
2018-08-17T07:07:10.042Z,8.17
2018-08-17T07:09:14.486Z,8.20
2018-08-17T07:11:18.649Z,4.53
2018-08-17T07:13:22.859Z,3.83
2018-08-17T07:15:27.763Z,8.00
2018-08-17T07:17:32.093Z,8.33
2018-08-17T07:19:36.293Z,7.07
2018-08-17T07:21:40.615Z,8.60
2018-08-17T07:23:44.811Z,7.57
2018-08-17T07:25:49.085Z,8.43
2018-08-17T07:27:53.303Z,6.80
2018-08-17T07:29:57.910Z,6.93
2018-08-17T07:32:02.165Z,7.87
2018-08-17T07:34:06.456Z,6.03
2018-08-17T07:36:10.632Z,8.40
2018-08-17T07:38:14.813Z,7.83
2018-08-17T07:40:19.004Z,6.57
2018-08-17T07:42:23.229Z,7.57
2018-08-17T07:44:27.487Z,8.53
2018-08-17T07:46:31.670Z,8.40
2018-08-17T07:48:35.901Z,8.20
2018-08-17T07:50:40.054Z,8.40
2018-08-17T07:52:44.323Z,8.90
2018-08-17T07:54:48.567Z,8.27
2018-08-17T07:56:52.842Z,8.40
2018-08-17T07:58:57.128Z,8.37
2018-08-17T08:01:01.234Z,8.43
2018-08-17T08:03:05.526Z,8.40
2018-08-17T08:05:11.021Z,8.60
2018-08-17T08:07:15.218Z,8.90
2018-08-17T08:09:19.483Z,9.33
2018-08-17T08:11:23.754Z,8.67
2018-08-17T08:13:27.987Z,7.83
2018-08-17T08:15:32.190Z,9.47
2018-08-17T08:17:36.550Z,9.10
2018-08-17T08:19:40.802Z,9.67
2018-08-17T08:21:47.323Z,9.97
2018-08-17T08:23:51.498Z,9.97
2018-08-17T08:25:56.594Z,10.20
2018-08-17T08:28:00.703Z,9.87
2018-08-17T08:30:05.254Z,9.33
2018-08-17T08:32:09.854Z,10.37
2018-08-17T08:34:14.300Z,10.03
2018-08-17T08:36:18.495Z,10.60
2018-08-17T08:38:22.781Z,9.57
2018-08-17T08:40:26.995Z,10.03
2018-08-17T08:42:31.199Z,8.90
2018-08-17T08:44:35.386Z,10.10
2018-08-17T08:46:39.656Z,9.50
2018-08-17T08:48:43.851Z,9.00
2018-08-17T08:50:48.054Z,10.50
2018-08-17T08:52:52.322Z,10.73
2018-08-17T08:54:56.563Z,9.53
2018-08-17T08:57:00.786Z,10.23
2018-08-17T08:59:05.076Z,8.93
2018-08-17T09:01:09.394Z,8.53
2018-08-17T09:03:13.894Z,9.07
2018-08-17T09:05:19.080Z,7.13
2018-08-17T09:07:23.539Z,10.67
2018-08-17T09:09:27.733Z,11.80
2018-08-17T09:11:32.030Z,8.63
2018-08-17T09:13:36.224Z,9.47
2018-08-17T09:15:40.756Z,9.57
2018-08-17T09:17:45.190Z,9.77
2018-08-17T09:19:49.332Z,9.33
2018-08-17T09:21:53.576Z,9.43
2018-08-17T09:23:57.882Z,10.07
2018-08-17T09:26:02.057Z,11.50
2018-08-17T09:28:06.345Z,9.90
2018-08-17T09:30:13.809Z,10.07
2018-08-17T09:32:18.063Z,8.87
2018-08-17T09:34:22.270Z,7.40
2018-08-17T09:36:26.543Z,7.70
2018-08-17T09:38:30.771Z,9.87
2018-08-17T09:40:34.967Z,9.43
2018-08-17T09:42:39.239Z,8.50
2018-08-17T09:44:43.474Z,10.30
2018-08-17T09:46:47.945Z,9.03
2018-08-17T09:48:52.106Z,9.20
2018-08-17T09:50:56.348Z,6.90
2018-08-17T09:53:00.879Z,7.20
2018-08-17T09:55:05.090Z,7.23
2018-08-17T09:57:09.238Z,4.93
2018-08-17T09:59:13.454Z,8.03
2018-08-17T10:01:22.788Z,7.47
2018-08-17T10:03:32.193Z,7.37
2018-08-17T10:05:39.817Z,7.63
2018-08-17T10:07:49.155Z,8.27
2018-08-17T10:10:12.007Z,4.13
2018-08-17T10:12:16.212Z,6.80
2018-08-17T10:14:21.114Z,4.10
2018-08-17T10:16:25.266Z,4.47
2018-08-17T10:18:49.199Z,4.23
2018-08-17T10:20:53.851Z,4.03
2018-08-17T10:22:57.991Z,4.47
2018-08-17T10:25:21.695Z,5.73
2018-08-17T10:27:25.931Z,4.97
2018-08-17T10:29:30.134Z,4.43
2018-08-17T10:31:34.397Z,3.63
2018-08-17T10:33:38.650Z,5.23
2018-08-17T10:35:42.824Z,4.83
2018-08-17T10:37:47.050Z,4.07
2018-08-17T10:39:51.630Z,3.53
2018-08-17T10:41:55.855Z,3.70
2018-08-17T10:44:00.073Z,3.53
2018-08-17T10:46:04.375Z,4.00
2018-08-17T10:48:08.566Z,4.23
2018-08-17T10:50:19.616Z,3.80
2018-08-17T10:52:23.873Z,3.50
2018-08-17T10:54:28.044Z,3.67
2018-08-17T10:56:32.309Z,3.50
2018-08-17T10:58:36.470Z,4.10
2018-08-17T11:00:40.672Z,3.30
2018-08-17T11:02:45.551Z,2.80
2018-08-17T11:04:49.814Z,3.47
2018-08-17T11:06:54.027Z,3.77
2018-08-17T11:08:58.257Z,2.87
2018-08-17T11:11:02.632Z,3.03
2018-08-17T11:13:06.914Z,2.83
2018-08-17T11:15:11.539Z,3.77
2018-08-17T11:17:15.842Z,2.90
2018-08-17T11:19:19.978Z,3.33
2018-08-17T11:21:24.181Z,3.03
2018-08-17T11:23:28.418Z,3.10
2018-08-17T11:25:32.591Z,3.23
2018-08-17T11:27:37.463Z,3.30
2018-08-17T11:29:41.762Z,2.17
2018-08-17T11:31:45.998Z,2.40
2018-08-17T11:33:50.183Z,2.00
2018-08-17T11:35:54.892Z,3.10
2018-08-17T11:37:59.077Z,2.63
2018-08-17T11:40:04.651Z,2.00
2018-08-17T11:42:08.844Z,2.73
2018-08-17T11:44:16.245Z,2.60
2018-08-17T11:46:20.442Z,2.50
2018-08-17T11:48:29.681Z,2.20
2018-08-17T11:50:37.114Z,2.30
2018-08-17T11:53:11.947Z,2.00
2018-08-17T11:55:16.481Z,2.00
2018-08-17T11:57:20.703Z,2.13
2018-08-17T11:59:24.901Z,3.07
2018-08-17T12:01:29.093Z,2.60
2018-08-17T12:03:33.378Z,2.00
2018-08-17T12:05:37.657Z,2.00
2018-08-17T12:07:43.260Z,2.33
2018-08-17T12:09:58.478Z,3.00
2018-08-17T12:12:02.642Z,2.20
2018-08-17T12:14:06.849Z,2.60
2018-08-17T12:16:13.125Z,2.97
2018-08-17T12:18:17.303Z,2.33
2018-08-17T12:20:21.449Z,2.10
2018-08-17T12:22:25.600Z,2.27
2018-08-17T12:24:30.890Z,2.63
2018-08-17T12:26:39.184Z,2.60
2018-08-17T12:28:43.393Z,2.47
2018-08-17T12:30:47.649Z,2.17
2018-08-17T12:32:51.882Z,2.50
2018-08-17T12:34:56.064Z,1.93
2018-08-17T12:37:02.962Z,2.50
2018-08-17T12:39:10.607Z,2.00
2018-08-17T12:41:14.833Z,1.93
2018-08-17T12:43:20.268Z,2.27
2018-08-17T12:45:24.550Z,2.50
2018-08-17T12:47:28.790Z,2.23
2018-08-17T12:49:32.986Z,2.00
2018-08-17T12:51:37.190Z,2.50
2018-08-17T12:53:41.407Z,2.77
2018-08-17T12:55:45.553Z,2.50
2018-08-17T12:57:49.721Z,2.50
2018-08-17T12:59:53.953Z,2.50
2018-08-17T13:01:58.151Z,2.10
2018-08-17T13:04:02.379Z,2.10
2018-08-17T13:06:06.617Z,2.00
2018-08-17T13:08:10.837Z,2.20
2018-08-17T13:10:15.181Z,2.60
2018-08-17T13:12:19.552Z,2.17
2018-08-17T13:14:23.720Z,1.90
2018-08-17T13:16:27.928Z,1.80
2018-08-17T13:18:34.776Z,1.90
2018-08-17T13:20:39.351Z,2.13
2018-08-17T13:22:43.795Z,2.10
2018-08-17T13:24:47.948Z,1.97
2018-08-17T13:26:52.189Z,1.67
2018-08-17T13:28:56.367Z,1.93
2018-08-17T13:31:00.610Z,1.87
2018-08-17T13:33:04.914Z,2.30
2018-08-17T13:35:09.048Z,1.70
2018-08-17T13:37:13.234Z,1.87
2018-08-17T13:39:17.439Z,1.90
2018-08-17T13:41:21.757Z,2.50
2018-08-17T13:43:25.933Z,2.13
2018-08-17T13:45:30.194Z,2.13
2018-08-17T13:47:34.323Z,2.00
2018-08-17T13:49:38.581Z,2.13
2018-08-17T13:51:42.784Z,1.80
2018-08-17T13:53:47.021Z,1.97
2018-08-17T13:55:51.223Z,2.30
2018-08-17T13:57:55.435Z,2.90
2018-08-17T13:59:59.653Z,2.00
2018-08-17T14:02:03.962Z,2.70
2018-08-17T14:04:08.157Z,2.20
2018-08-17T14:06:12.413Z,2.07
2018-08-17T14:08:16.666Z,2.30
2018-08-17T14:10:20.851Z,2.40
2018-08-17T14:12:25.551Z,2.87
2018-08-17T14:14:29.777Z,2.60
2018-08-17T14:16:33.973Z,2.30
2018-08-17T14:18:38.175Z,2.30
2018-08-17T14:20:42.382Z,3.00
2018-08-17T14:22:46.601Z,2.53
2018-08-17T14:24:50.821Z,2.20
2018-08-17T14:26:55.024Z,2.50
2018-08-17T14:28:59.305Z,2.27
2018-08-17T14:31:03.462Z,2.57
2018-08-17T14:33:07.782Z,2.40
2018-08-17T14:35:12.113Z,2.37
2018-08-17T14:37:16.324Z,2.20
2018-08-17T14:39:20.515Z,1.90
2018-08-17T14:41:24.705Z,2.10
2018-08-17T14:43:28.954Z,2.00
2018-08-17T14:45:33.161Z,2.10
2018-08-17T14:47:37.772Z,1.80
2018-08-17T14:49:42.005Z,2.33
2018-08-17T14:51:46.207Z,2.63
2018-08-17T14:53:50.450Z,1.80
2018-08-17T14:55:54.615Z,1.90
2018-08-17T14:57:58.843Z,2.07
2018-08-17T15:00:03.036Z,2.13
2018-08-17T15:02:07.245Z,1.80
2018-08-17T15:04:11.441Z,1.90
2018-08-17T15:06:15.676Z,2.10
2018-08-17T15:08:19.986Z,2.17
2018-08-17T15:10:24.198Z,1.63
2018-08-17T15:12:28.403Z,2.27
2018-08-17T15:14:32.584Z,1.63
2018-08-17T15:16:36.707Z,1.80
2018-08-17T15:18:41.034Z,1.90
2018-08-17T15:20:45.227Z,1.63
2018-08-17T15:22:49.647Z,2.07
2018-08-17T15:24:54.195Z,1.93
2018-08-17T15:26:58.466Z,1.43
2018-08-17T15:29:02.680Z,1.67
2018-08-17T15:31:06.906Z,1.80
2018-08-17T15:33:11.115Z,2.07
2018-08-17T15:35:15.305Z,1.57
2018-08-17T15:37:19.795Z,1.67
2018-08-17T15:39:24.102Z,1.60
2018-08-17T15:41:28.460Z,1.80
2018-08-17T15:43:44.528Z,2.10
2018-08-17T15:45:50.114Z,1.70
2018-08-17T15:47:54.375Z,1.30
2018-08-17T15:50:14.644Z,1.57
2018-08-17T15:52:18.929Z,1.90
2018-08-17T15:54:23.104Z,1.73
2018-08-17T15:56:27.441Z,1.50
2018-08-17T15:58:31.637Z,1.30
2018-08-17T16:00:35.916Z,1.40
2018-08-17T16:02:40.107Z,1.67
2018-08-17T16:04:44.335Z,1.47
2018-08-17T16:06:48.648Z,1.40
2018-08-17T16:08:52.891Z,1.77
2018-08-17T16:10:57.095Z,1.60
2018-08-17T16:13:01.328Z,1.87
2018-08-17T16:15:06.185Z,1.33
2018-08-17T16:17:10.462Z,1.30
2018-08-17T16:19:14.706Z,1.50
2018-08-17T16:21:18.868Z,1.33
2018-08-17T16:23:23.164Z,1.57
2018-08-17T16:25:27.389Z,1.97
2018-08-17T16:27:31.533Z,1.17
2018-08-17T16:29:35.796Z,1.17
2018-08-17T16:31:42.409Z,1.37
2018-08-17T16:33:46.561Z,1.37
2018-08-17T16:35:50.829Z,1.13
2018-08-17T16:37:55.077Z,1.30
2018-08-17T16:39:59.284Z,1.50
2018-08-17T16:42:03.506Z,1.17
2018-08-17T16:44:07.774Z,0.90
2018-08-17T16:46:12.558Z,1.20
2018-08-17T16:48:16.766Z,1.63
2018-08-17T16:50:21.029Z,1.30
2018-08-17T16:52:25.338Z,1.27
2018-08-17T16:54:29.572Z,1.20
2018-08-17T16:56:33.776Z,1.30
2018-08-17T16:58:37.988Z,1.23
2018-08-17T17:00:42.241Z,1.40
2018-08-17T17:02:46.494Z,0.90
2018-08-17T17:04:50.754Z,1.43
2018-08-17T17:06:54.986Z,1.40
2018-08-17T17:09:02.330Z,1.10
2018-08-17T17:11:06.490Z,1.57
2018-08-17T17:13:10.717Z,1.53
2018-08-17T17:15:20.866Z,1.53
2018-08-17T17:17:25.090Z,1.10
2018-08-17T17:19:29.327Z,1.40
2018-08-17T17:21:33.500Z,1.20
2018-08-17T17:23:46.835Z,1.10
2018-08-17T17:25:51.013Z,1.50
2018-08-17T17:27:55.259Z,1.10
2018-08-17T17:29:59.892Z,0.90
2018-08-17T17:32:04.363Z,1.30
2018-08-17T17:34:09.140Z,1.43
2018-08-17T17:36:13.403Z,1.10
2018-08-17T17:38:17.718Z,1.20
2018-08-17T17:40:21.888Z,1.00
2018-08-17T17:42:26.106Z,1.00
2018-08-17T17:44:30.370Z,1.33
2018-08-17T17:46:34.607Z,1.10
2018-08-17T17:48:38.800Z,1.30
2018-08-17T17:50:42.983Z,1.37
2018-08-17T17:52:47.191Z,0.90
2018-08-17T17:54:51.883Z,1.27
2018-08-17T17:57:01.830Z,1.17
2018-08-17T17:59:11.171Z,1.43
2018-08-17T18:01:15.437Z,1.30
2018-08-17T18:03:19.619Z,1.10
2018-08-17T18:05:24.029Z,1.10
2018-08-17T18:07:44.702Z,1.10
2018-08-17T18:09:48.924Z,1.10
2018-08-17T18:11:53.132Z,1.10
2018-08-17T18:13:57.358Z,0.97
2018-08-17T18:16:01.696Z,1.43
2018-08-17T18:18:06.315Z,1.20
2018-08-17T18:20:11.442Z,1.40
2018-08-17T18:22:23.613Z,1.50
2018-08-17T18:24:27.838Z,1.23
2018-08-17T18:26:32.078Z,1.10
2018-08-17T18:28:36.333Z,1.30
2018-08-17T18:30:40.990Z,1.27
2018-08-17T18:32:45.560Z,1.30
2018-08-17T18:34:49.826Z,1.80
2018-08-17T18:36:54.090Z,1.30
2018-08-17T18:38:58.353Z,1.73
2018-08-17T18:41:02.549Z,1.10
2018-08-17T18:43:06.780Z,1.50
2018-08-17T18:45:11.023Z,1.30
2018-08-17T18:47:15.183Z,1.10
2018-08-17T18:49:19.433Z,1.07
2018-08-17T18:51:23.646Z,1.10
2018-08-17T18:53:27.880Z,1.07
2018-08-17T18:55:32.410Z,1.20
2018-08-17T18:57:36.701Z,1.47
2018-08-17T18:59:40.938Z,1.30
2018-08-17T19:01:45.163Z,1.00
2018-08-17T19:03:49.384Z,1.10
2018-08-17T19:05:53.600Z,1.10
2018-08-17T19:07:57.778Z,1.40
2018-08-17T19:10:02.059Z,1.20
2018-08-17T19:12:06.305Z,1.27
2018-08-17T19:14:10.511Z,1.20
2018-08-17T19:16:14.841Z,1.10
2018-08-17T19:18:18.999Z,1.00
2018-08-17T19:20:23.189Z,1.33
2018-08-17T19:22:27.730Z,1.50
2018-08-17T19:24:31.983Z,1.20
2018-08-17T19:26:36.243Z,1.30
2018-08-17T19:28:40.486Z,1.30
2018-08-17T19:30:44.766Z,1.20
2018-08-17T19:32:48.993Z,1.30
2018-08-17T19:34:53.187Z,1.77
2018-08-17T19:36:57.491Z,1.40
2018-08-17T19:39:01.660Z,1.80
2018-08-17T19:41:05.871Z,1.50
2018-08-17T19:43:10.122Z,1.50
2018-08-17T19:45:14.316Z,1.53
2018-08-17T19:47:18.508Z,1.70
2018-08-17T19:49:22.762Z,1.60
2018-08-17T19:51:26.963Z,1.40
2018-08-17T19:53:31.324Z,1.80
2018-08-17T19:55:35.485Z,1.70
2018-08-17T19:57:39.763Z,1.67
2018-08-17T19:59:43.980Z,1.60
2018-08-17T20:01:48.202Z,1.30
2018-08-17T20:03:52.740Z,1.20
2018-08-17T20:05:56.904Z,1.37
2018-08-17T20:08:01.159Z,1.27
2018-08-17T20:10:05.841Z,1.40
2018-08-17T20:12:10.055Z,1.67
2018-08-17T20:14:14.264Z,1.47
2018-08-17T20:16:34.840Z,1.10
2018-08-17T20:18:39.067Z,1.53
2018-08-17T20:20:43.453Z,1.20
2018-08-17T20:22:47.731Z,1.20
2018-08-17T20:24:52.021Z,1.70
2018-08-17T20:26:56.258Z,1.17
2018-08-17T20:29:00.444Z,1.40
2018-08-17T20:31:04.722Z,1.27
2018-08-17T20:33:16.144Z,1.20
2018-08-17T20:35:20.633Z,1.20
2018-08-17T20:37:24.848Z,1.10
2018-08-17T20:39:29.080Z,1.33
2018-08-17T20:41:33.350Z,1.43
2018-08-17T20:43:37.550Z,1.10
2018-08-17T20:45:41.803Z,1.10
2018-08-17T20:47:46.067Z,1.20
2018-08-17T20:49:50.366Z,1.27
2018-08-17T20:51:58.995Z,1.20
2018-08-17T20:54:03.853Z,1.17
2018-08-17T20:56:08.011Z,1.50
2018-08-17T20:58:12.310Z,1.40
2018-08-17T21:00:16.665Z,2.37
2018-08-17T21:02:20.921Z,3.10
2018-08-17T21:04:25.094Z,4.40
2018-08-17T21:06:29.311Z,4.33
2018-08-17T21:08:33.540Z,3.93
2018-08-17T21:10:37.743Z,3.90
2018-08-17T21:12:41.946Z,3.50
2018-08-17T21:14:46.186Z,4.23
2018-08-17T21:16:50.353Z,4.23
2018-08-17T21:18:54.701Z,4.23
2018-08-17T21:20:59.001Z,4.60
2018-08-17T21:23:03.200Z,5.87
2018-08-17T21:25:07.729Z,6.40
2018-08-17T21:27:11.909Z,4.97
2018-08-17T21:29:16.150Z,4.33
2018-08-17T21:31:20.326Z,3.90
2018-08-17T21:33:24.562Z,3.37
2018-08-17T21:35:29.625Z,3.97
2018-08-17T21:37:33.829Z,4.47
2018-08-17T21:39:38.079Z,3.73
2018-08-17T21:41:43.980Z,3.10
2018-08-17T21:43:48.063Z,3.27
2018-08-17T21:45:56.392Z,3.20
2018-08-17T21:48:00.593Z,3.50
2018-08-17T21:50:09.257Z,3.87
2018-08-17T21:52:18.438Z,3.40
2018-08-17T21:54:22.767Z,3.87
2018-08-17T21:56:26.981Z,4.00
2018-08-17T21:58:31.191Z,3.73
2018-08-17T22:00:35.538Z,3.97
2018-08-17T22:02:39.745Z,3.80
2018-08-17T22:04:44.218Z,4.80
2018-08-17T22:06:48.556Z,4.47
2018-08-17T22:08:52.772Z,4.10
2018-08-17T22:10:57.053Z,3.43
2018-08-17T22:13:01.255Z,4.17
2018-08-17T22:15:05.915Z,4.03
2018-08-17T22:17:21.085Z,4.20
2018-08-17T22:19:34.806Z,3.37
2018-08-17T22:21:38.980Z,3.57
2018-08-17T22:23:43.154Z,3.80
2018-08-17T22:25:47.404Z,3.40
2018-08-17T22:27:51.583Z,3.43
2018-08-17T22:29:56.995Z,3.13
2018-08-17T22:32:01.179Z,3.10
2018-08-17T22:34:05.442Z,2.97
2018-08-17T22:36:13.866Z,3.00
2018-08-17T22:38:18.130Z,3.03
2018-08-17T22:40:22.328Z,3.00
2018-08-17T22:42:26.590Z,3.50
2018-08-17T22:44:30.783Z,2.73
2018-08-17T22:46:34.990Z,2.50
2018-08-17T22:48:39.362Z,2.70
2018-08-17T22:50:43.552Z,2.63
2018-08-17T22:52:47.697Z,2.27
2018-08-17T22:54:55.846Z,2.57
2018-08-17T22:57:00.044Z,2.40
2018-08-17T22:59:04.285Z,2.57
2018-08-17T23:01:08.463Z,1.97
2018-08-17T23:03:12.710Z,1.97
2018-08-17T23:05:20.769Z,2.57
2018-08-17T23:07:24.982Z,2.23
2018-08-17T23:09:29.258Z,2.50
2018-08-17T23:11:36.462Z,2.17
2018-08-17T23:13:40.702Z,2.20
2018-08-17T23:15:44.884Z,2.63
2018-08-17T23:17:53.273Z,2.40
2018-08-17T23:19:57.902Z,2.20
2018-08-17T23:22:02.113Z,2.33
2018-08-17T23:24:06.572Z,2.50
2018-08-17T23:26:10.754Z,2.53
2018-08-17T23:28:14.914Z,2.30
2018-08-17T23:30:19.162Z,2.00
2018-08-17T23:32:23.502Z,2.00
2018-08-17T23:34:27.700Z,2.10
2018-08-17T23:36:31.897Z,2.10
2018-08-17T23:38:36.072Z,2.10
2018-08-17T23:40:40.230Z,2.03
2018-08-17T23:42:44.548Z,1.93
2018-08-17T23:44:48.776Z,2.10
2018-08-17T23:46:53.020Z,1.90
2018-08-17T23:48:57.235Z,2.10
2018-08-17T23:51:01.443Z,1.97
2018-08-17T23:53:05.613Z,2.10
2018-08-17T23:55:13.200Z,2.30
2018-08-17T23:57:17.399Z,2.20
2018-08-17T23:59:21.685Z,1.83
